Flag for Mexico

Past Weather in 19°26'11.2"N, 99°17'25.2"W, Mexico — Yesterday and Last 2 Weeks

Currently: 73 °F. Scattered clouds. (Weather station: Mexico City / Licenci, Mexico). See more current weather

Past Weather in 19°26'11.2"N, 99°17'25.2"W — Graph

°F

19°26'11.2"N, 99°17'25.2"W Temperature Yesterday

Maximum temperature yesterday: 77 °F (at 3:20 pm)
Minimum temperature yesterday: 55 °F (at 7:45 am)
Average temperature yesterday: 66 °F

High & Low Weather Summary for the Past Weeks

 TemperatureHumidityPressure
High79 °F (Aug 4, 2:54 pm)100% (Aug 15, 3:03 pm)30.44 "Hg (Aug 15, 3:03 pm)
Low54 °F (Aug 5, 6:50 am)22% (Aug 5, 3:52 pm)29.67 "Hg (Aug 4, 3:46 pm)
Average65 °F63%30.20 "Hg
* Reported Aug 3 1:45 pm — Aug 18 1:45 pm, 19°26'11.2"N, 99°17'25.2"W. Weather by CustomWeather, © 2022

Note: Actual official high and low records may vary slightly from our data, if they occured in-between our weather recording intervals... More about our weather records

19°26'11.2"N, 99°17'25.2"W Weather History for the Previous 24 Hours

Scroll right to see more
 ConditionsComfort  
Time TempWeatherWind HumidityBarometerVisibility
1:45 pm
Thu, Aug 18
73 °FScattered clouds.7 mph44%30.30 "Hg6 mi
12:45 pm72 °FScattered clouds.5 mph47%29.78 "Hg5 mi
12:23 pm72 °FScattered clouds.7 mph50%30.33 "Hg5 mi
11:45 am68 °FScattered clouds.7 mph60%30.35 "Hg5 mi
10:45 am66 °FScattered clouds.5 mph60%30.37 "Hg6 mi
9:45 am63 °FPassing clouds.5 mph68%29.86 "Hg6 mi
8:45 am59 °FScattered clouds.8 mph82%30.38 "Hg7 mi
7:45 am59 °FScattered clouds.2 mph82%30.36 "Hg7 mi
7:04 am57 °FPartly cloudy.6 mph88%30.35 "Hg7 mi
5:45 am61 °FPartly cloudy.7 mph77%30.34 "Hg7 mi
4:46 am61 °FPartly cloudy.6 mph77%30.32 "Hg8 mi
3:45 am61 °FPartly cloudy.6 mph72%29.78 "Hg8 mi
2:45 am61 °FPartly cloudy.6 mph72%30.35 "Hg8 mi
1:45 am63 °FOvercast.7 mph73%30.35 "Hg8 mi
12:45 am64 °FPassing clouds.6 mph64%29.83 "Hg8 mi
11:45 pm
Wed, Aug 17
66 °FPartly cloudy.7 mph60%30.35 "Hg8 mi
10:46 pm66 °FPartly cloudy.13 mph60%30.35 "Hg8 mi
9:45 pm68 °FPartly cloudy.9 mph53%29.82 "Hg8 mi
8:43 pm68 °FPartly cloudy.12 mph53%30.28 "Hg8 mi
7:46 pm70 °FBroken clouds.10 mph53%30.28 "Hg9 mi
6:41 pm72 °FBroken clouds.12 mph50%30.26 "Hg9 mi
5:47 pm73 °FBroken clouds.6 mph41%30.26 "Hg8 mi
5:28 pm75 °FPartly sunny.8 mph36%30.26 "Hg8 mi
4:47 pm77 °FBroken clouds.5 mph34%30.27 "Hg8 mi
3:46 pm77 °FScattered clouds.12 mph39%29.76 "Hg7 mi
3:20 pm77 °FBroken clouds.6 mph34%30.31 "Hg7 mi
Weather by CustomWeather, © 2022

See weather overview